Amagi Galaxy — V7VE9 — position and weather

sailwx.info

Track history (hours):
 
Tides and Currents Weather Stations Pressure Air Temp Water Temp Dewpoint Dewpoint Depression Visibility Wind Speed Wind Dir Waves Ship Positions

Amagi Galaxy

Last reported at 2014-Oct-02 14:28 UTC. Time now 2014-Oct-02 14:39 UTC.
Position N 22°31' E 120°16'.

Length 152 m; draft 9.3 m.

Type: Tanker. MMSI: 538004105.

Date/timePositionNaut miles runAvg speedWind from/ knotsBaromVisibWave heightAir tempDewpointWater temp
2014-Oct-02 14:28N 22°31' E 120°16'0 0.0
2014-Oct-02 13:28N 22°31' E 120°16'0 0.0
2014-Oct-02 12:28N 22°31' E 120°16'0 0.1
2014-Oct-02 11:28N 22°31' E 120°16'0 0.0
2014-Oct-02 10:10N 22°31' E 120°16'0 0.0
2014-Oct-02 09:22N 22°31' E 120°16'0 0.1
2014-Oct-02 08:28N 22°31' E 120°16'0 0.0
2014-Oct-02 07:10N 22°31' E 120°16'0 0.0
2014-Oct-02 06:28N 22°31' E 120°16'0 0.0
2014-Oct-02 05:04N 22°31' E 120°16'0 0.0
2014-Oct-02 04:16N 22°31' E 120°16'0 0.6
2014-Oct-02 03:33N 22°31' E 120°16'6 6.5
2014-Oct-02 02:33N 22°31' E 120°10'1010.0
2014-Oct-02 01:33N 22°39' E 120°04'13 0.5
2014-Oct-01 00:32N 22°52' E 120°02'1111.4
2014-Sep-30 23:33N 22°42' E 119°57'1212.2
2014-Sep-30 22:33N 22°30' E 119°53'  
2014-Sep-25 20:09N 01°15' E 104°05'813.0
2014-Sep-25 19:33N 01°14' E 103°57'1312.9
2014-Sep-25 18:33N 01°08' E 103°46'1111.0
2014-Sep-25 17:33N 01°05' E 103°35'7 7.0
2014-Sep-25 16:34N 01°11' E 103°37'3 3.3
2014-Sep-25 15:32N 01°14' E 103°39'0 0.1
2014-Sep-25 14:23N 01°14' E 103°39'0 0.1
2014-Sep-25 13:32N 01°14' E 103°39'0 0.0
2014-Sep-25 12:32N 01°14' E 103°39'0 0.1
2014-Sep-25 11:32N 01°14' E 103°39'0 0.1
2014-Sep-25 10:32N 01°14' E 103°39'0 0.0
2014-Sep-25 09:32N 01°14' E 103°39'0 0.0
2014-Sep-25 08:23N 01°14' E 103°39'0 0.0
2014-Sep-25 07:31N 01°14' E 103°39'0 0.1
2014-Sep-25 06:33N 01°14' E 103°39'4 3.5
2014-Sep-25 05:33N 01°12' E 103°36'7 7.1
2014-Sep-25 04:32N 01°11' E 103°29'  
Track history (hours):
 
Tides and Currents Weather Stations Pressure Air Temp Water Temp Dewpoint Dewpoint Depression Visibility Wind Speed Wind Dir Waves Ship Positions

Amagi Galaxy

Last reported at 2014-Oct-02 14:28 UTC. Time now 2014-Oct-02 14:39 UTC.
Position N 22°31' E 120°16'.

Length 152 m; draft 9.3 m.

Type: Tanker. MMSI: 538004105.

Date/timePositionNaut miles runAvg speedWind from/ knotsBaromVisibWave heightAir tempDewpointWater temp
2014-Oct-02 14:28N 22°31' E 120°16'0 0.0
2014-Oct-02 13:28N 22°31' E 120°16'0 0.0
2014-Oct-02 12:28N 22°31' E 120°16'0 0.1
2014-Oct-02 11:28N 22°31' E 120°16'0 0.0
2014-Oct-02 10:10N 22°31' E 120°16'0 0.0
2014-Oct-02 09:22N 22°31' E 120°16'0 0.1
2014-Oct-02 08:28N 22°31' E 120°16'0 0.0
2014-Oct-02 07:10N 22°31' E 120°16'0 0.0
2014-Oct-02 06:28N 22°31' E 120°16'0 0.0
2014-Oct-02 05:04N 22°31' E 120°16'0 0.0
2014-Oct-02 04:16N 22°31' E 120°16'0 0.6
2014-Oct-02 03:33N 22°31' E 120°16'6 6.5
2014-Oct-02 02:33N 22°31' E 120°10'1010.0
2014-Oct-02 01:33N 22°39' E 120°04'13 0.5
2014-Oct-01 00:32N 22°52' E 120°02'1111.4
2014-Sep-30 23:33N 22°42' E 119°57'1212.2
2014-Sep-30 22:33N 22°30' E 119°53'  
2014-Sep-25 20:09N 01°15' E 104°05'813.0
2014-Sep-25 19:33N 01°14' E 103°57'1312.9
2014-Sep-25 18:33N 01°08' E 103°46'1111.0
2014-Sep-25 17:33N 01°05' E 103°35'7 7.0
2014-Sep-25 16:34N 01°11' E 103°37'3 3.3
2014-Sep-25 15:32N 01°14' E 103°39'0 0.1
2014-Sep-25 14:23N 01°14' E 103°39'0 0.1
2014-Sep-25 13:32N 01°14' E 103°39'0 0.0
2014-Sep-25 12:32N 01°14' E 103°39'0 0.1
2014-Sep-25 11:32N 01°14' E 103°39'0 0.1
2014-Sep-25 10:32N 01°14' E 103°39'0 0.0
2014-Sep-25 09:32N 01°14' E 103°39'0 0.0
2014-Sep-25 08:23N 01°14' E 103°39'0 0.0
2014-Sep-25 07:31N 01°14' E 103°39'0 0.1
2014-Sep-25 06:33N 01°14' E 103°39'4 3.5
2014-Sep-25 05:33N 01°12' E 103°36'7 7.1
2014-Sep-25 04:32N 01°11' E 103°29'  

Dump ship's entire track history